createdAt,value
2019-03-25T00:00:44.613Z,3.20
2019-03-25T00:03:12.985Z,3.20
2019-03-25T00:05:41.362Z,3.10
2019-03-25T00:08:09.882Z,3.10
2019-03-25T00:10:38.301Z,3.10
2019-03-25T00:13:06.714Z,3.20
2019-03-25T00:15:35.164Z,3.20
2019-03-25T00:18:04.110Z,3.20
2019-03-25T00:20:32.490Z,3.30
2019-03-25T00:23:00.946Z,3.30
2019-03-25T00:25:29.334Z,3.20
2019-03-25T00:27:57.686Z,3.30
2019-03-25T00:30:26.081Z,3.30
2019-03-25T00:32:54.552Z,3.30
2019-03-25T00:35:23.310Z,3.30
2019-03-25T00:37:51.754Z,3.40
2019-03-25T00:40:20.179Z,3.40
2019-03-25T00:42:48.538Z,3.50
2019-03-25T00:45:17.017Z,3.40
2019-03-25T00:47:45.415Z,3.40
2019-03-25T00:50:13.805Z,3.40
2019-03-25T00:52:42.177Z,3.50
2019-03-25T00:55:10.630Z,3.50
2019-03-25T00:57:39.017Z,3.50
2019-03-25T01:00:08.928Z,3.40
2019-03-25T01:02:37.319Z,3.40
2019-03-25T01:05:05.696Z,3.40
2019-03-25T01:07:34.115Z,3.40
2019-03-25T01:10:02.682Z,3.50
2019-03-25T01:12:31.115Z,3.40
2019-03-25T01:14:59.489Z,3.50
2019-03-25T01:17:27.870Z,3.50
2019-03-25T01:19:56.318Z,3.50
2019-03-25T01:22:24.678Z,3.50
2019-03-25T01:25:01.360Z,3.50
2019-03-25T01:27:23.246Z,3.60
2019-03-25T01:29:51.607Z,3.50
2019-03-25T01:32:20.096Z,3.50
2019-03-25T01:34:48.511Z,3.50
2019-03-25T01:37:17.066Z,3.40
2019-03-25T01:39:45.516Z,3.40
2019-03-25T01:42:13.891Z,3.40
2019-03-25T01:44:42.281Z,3.40
2019-03-25T01:47:10.717Z,3.30
2019-03-25T01:49:39.114Z,3.40
2019-03-25T01:52:07.477Z,3.30
2019-03-25T01:54:36.054Z,3.30
2019-03-25T01:57:04.504Z,3.40
2019-03-25T01:59:32.857Z,3.40
2019-03-25T02:02:01.246Z,3.40
2019-03-25T02:04:29.698Z,3.40
2019-03-25T02:06:58.094Z,3.40
2019-03-25T02:09:26.465Z,3.40
2019-03-25T02:11:54.825Z,3.40
2019-03-25T02:14:23.202Z,3.30
2019-03-25T02:16:51.647Z,3.40
2019-03-25T02:19:20.097Z,3.40
2019-03-25T02:21:48.461Z,3.40
2019-03-25T02:24:16.856Z,3.30
2019-03-25T02:26:45.236Z,3.30
2019-03-25T02:29:13.668Z,3.30
2019-03-25T02:31:42.062Z,3.40
2019-03-25T02:34:10.443Z,3.30
2019-03-25T02:36:38.796Z,3.20
2019-03-25T02:39:07.165Z,3.10
2019-03-25T02:41:35.599Z,3.10
2019-03-25T02:44:04.057Z,2.90
2019-03-25T02:46:32.500Z,2.90
2019-03-25T02:49:00.883Z,2.80
2019-03-25T02:51:30.014Z,2.80
2019-03-25T02:53:58.483Z,2.80
2019-03-25T02:56:26.988Z,2.90
2019-03-25T02:58:55.404Z,2.90
2019-03-25T03:01:23.846Z,2.80
2019-03-25T03:03:52.152Z,2.70
2019-03-25T03:06:20.632Z,2.70
2019-03-25T03:08:48.984Z,2.70
2019-03-25T03:11:17.423Z,2.70
2019-03-25T03:13:45.805Z,2.80
2019-03-25T03:16:14.118Z,2.80
2019-03-25T03:18:42.481Z,2.80
2019-03-25T03:21:10.911Z,2.90
2019-03-25T03:23:39.233Z,2.90
2019-03-25T03:26:07.673Z,2.90
2019-03-25T03:28:36.060Z,2.90
2019-03-25T03:31:04.510Z,3.00
2019-03-25T03:33:32.893Z,3.00
2019-03-25T03:36:01.326Z,3.00
2019-03-25T03:38:29.691Z,2.90
2019-03-25T03:40:58.200Z,2.90
2019-03-25T03:43:26.542Z,2.80
2019-03-25T03:45:55.002Z,2.80
2019-03-25T03:48:24.172Z,2.80
2019-03-25T03:50:52.615Z,2.70
2019-03-25T03:53:21.017Z,2.70
2019-03-25T03:55:49.508Z,2.80
2019-03-25T03:58:17.842Z,2.90
2019-03-25T04:00:46.214Z,2.80
2019-03-25T04:03:14.598Z,2.90
2019-03-25T04:05:42.968Z,2.90
2019-03-25T04:08:11.353Z,2.90
2019-03-25T04:10:39.720Z,3.00
2019-03-25T04:13:08.090Z,3.00
2019-03-25T04:15:36.568Z,3.00
2019-03-25T04:18:04.965Z,3.00
2019-03-25T04:20:33.311Z,3.00
2019-03-25T04:23:01.672Z,2.90
2019-03-25T04:25:30.170Z,2.80
2019-03-25T04:27:58.525Z,2.90
2019-03-25T04:30:26.893Z,2.80
2019-03-25T04:32:55.282Z,2.70
2019-03-25T04:35:23.710Z,2.80
2019-03-25T04:37:52.128Z,2.90
2019-03-25T04:40:20.578Z,2.80
2019-03-25T04:42:48.949Z,2.80
2019-03-25T04:45:18.047Z,2.70
2019-03-25T04:47:46.481Z,2.70
2019-03-25T04:50:14.858Z,2.70
2019-03-25T04:52:43.213Z,2.70
2019-03-25T04:55:11.541Z,2.70
2019-03-25T04:57:39.895Z,2.70
2019-03-25T05:00:09.033Z,2.70
2019-03-25T05:02:37.398Z,2.80
2019-03-25T05:05:07.893Z,2.70
2019-03-25T05:07:36.277Z,2.60
2019-03-25T05:10:06.662Z,2.60
2019-03-25T05:12:35.119Z,2.60
2019-03-25T05:15:04.470Z,2.60
2019-03-25T05:17:32.886Z,2.60
2019-03-25T05:20:01.190Z,2.60
2019-03-25T05:22:29.693Z,2.70
2019-03-25T05:24:58.046Z,3.50
2019-03-25T05:27:26.415Z,3.20
2019-03-25T05:29:54.720Z,3.20
2019-03-25T05:32:23.018Z,3.00
2019-03-25T05:34:51.401Z,3.00
2019-03-25T05:37:19.830Z,3.00
2019-03-25T05:39:48.147Z,2.90
2019-03-25T05:42:16.587Z,2.90
2019-03-25T05:44:45.059Z,2.80
2019-03-25T05:47:13.435Z,2.90
2019-03-25T05:49:41.865Z,2.90
2019-03-25T05:52:10.265Z,2.90
2019-03-25T05:54:38.566Z,2.90
2019-03-25T05:57:06.957Z,3.10
2019-03-25T05:59:35.319Z,3.10
2019-03-25T06:02:03.766Z,3.10
2019-03-25T06:04:33.138Z,3.10
2019-03-25T06:07:01.452Z,3.10
2019-03-25T06:09:29.816Z,3.00
2019-03-25T06:11:58.219Z,3.00
2019-03-25T06:14:26.620Z,3.00
2019-03-25T06:16:55.025Z,3.00
2019-03-25T06:19:23.406Z,3.10
2019-03-25T06:21:51.849Z,3.10
2019-03-25T06:24:20.294Z,3.10
2019-03-25T06:26:48.687Z,3.10
2019-03-25T06:29:17.172Z,3.10
2019-03-25T06:31:45.531Z,3.30
2019-03-25T06:34:13.907Z,3.30
2019-03-25T06:36:42.301Z,3.40
2019-03-25T06:39:10.665Z,3.60
2019-03-25T06:41:39.065Z,3.70
2019-03-25T06:44:08.011Z,3.60
2019-03-25T06:46:36.441Z,3.70
2019-03-25T06:49:04.823Z,3.70
2019-03-25T06:51:33.369Z,3.80
2019-03-25T06:54:01.737Z,3.80
2019-03-25T06:56:30.117Z,3.90
2019-03-25T06:58:58.574Z,4.00
2019-03-25T07:01:27.018Z,4.10
2019-03-25T07:03:55.380Z,4.20
2019-03-25T07:06:23.758Z,4.20
2019-03-25T07:08:52.154Z,4.20
2019-03-25T07:11:20.450Z,4.20
2019-03-25T07:13:48.760Z,4.30
2019-03-25T07:16:17.124Z,4.30
2019-03-25T07:18:45.518Z,4.40
2019-03-25T07:21:13.881Z,4.40
2019-03-25T07:23:42.269Z,4.50
2019-03-25T07:26:10.649Z,4.70
2019-03-25T07:28:39.029Z,4.70
2019-03-25T07:31:07.411Z,5.00
2019-03-25T07:33:35.781Z,5.20
2019-03-25T07:36:04.177Z,5.20
2019-03-25T07:38:32.565Z,5.20
2019-03-25T07:41:00.929Z,5.20
2019-03-25T07:43:29.297Z,5.20
2019-03-25T07:45:57.758Z,5.10
2019-03-25T07:48:26.142Z,5.00
2019-03-25T07:50:54.526Z,5.00
2019-03-25T07:53:22.954Z,5.00
2019-03-25T07:55:51.289Z,5.10
2019-03-25T07:58:19.921Z,5.10
2019-03-25T08:00:48.346Z,5.10
2019-03-25T08:03:16.704Z,5.00
2019-03-25T08:05:45.080Z,5.00
2019-03-25T08:08:13.540Z,4.90
2019-03-25T08:10:41.907Z,4.90
2019-03-25T08:13:10.369Z,4.90
2019-03-25T08:15:38.966Z,4.90
2019-03-25T08:18:07.441Z,5.00
2019-03-25T08:20:35.743Z,5.20
2019-03-25T08:23:04.125Z,5.40
2019-03-25T08:25:32.491Z,5.50
2019-03-25T08:28:00.887Z,5.50
2019-03-25T08:30:29.313Z,5.40
2019-03-25T08:32:57.709Z,5.40
2019-03-25T08:35:26.248Z,5.30
2019-03-25T08:37:54.645Z,5.20
2019-03-25T08:40:23.203Z,5.00
2019-03-25T08:42:51.570Z,5.10
2019-03-25T08:45:20.023Z,5.10
2019-03-25T08:47:48.406Z,5.20
2019-03-25T08:50:16.796Z,5.30
2019-03-25T08:52:45.184Z,5.30
2019-03-25T08:55:14.037Z,5.40
2019-03-25T08:57:42.412Z,5.50
2019-03-25T09:00:11.122Z,5.50
2019-03-25T09:02:39.562Z,5.30
2019-03-25T09:05:08.286Z,5.40
2019-03-25T09:07:36.887Z,5.30
2019-03-25T09:10:10.092Z,5.40
2019-03-25T09:12:38.425Z,5.50
2019-03-25T09:15:10.075Z,5.50
2019-03-25T09:17:38.447Z,5.50
2019-03-25T09:20:08.009Z,5.60
2019-03-25T09:22:36.366Z,5.70
2019-03-25T09:25:07.197Z,5.60
2019-03-25T09:27:35.598Z,5.60
2019-03-25T09:30:04.791Z,5.50
2019-03-25T09:32:33.173Z,5.40
2019-03-25T09:35:01.580Z,5.40
2019-03-25T09:37:29.961Z,5.30
2019-03-25T09:39:58.393Z,5.40
2019-03-25T09:42:26.870Z,5.50
2019-03-25T09:44:55.307Z,5.60
2019-03-25T09:47:23.672Z,5.70
2019-03-25T09:49:52.096Z,5.90
2019-03-25T09:52:20.482Z,5.90
2019-03-25T09:54:48.844Z,6.00
2019-03-25T09:57:19.477Z,6.20
2019-03-25T09:59:47.286Z,6.20
2019-03-25T10:02:16.122Z,6.30
2019-03-25T10:04:44.596Z,6.30
2019-03-25T10:07:16.239Z,6.30
2019-03-25T10:09:43.959Z,6.30
2019-03-25T10:12:12.418Z,6.40
2019-03-25T10:14:40.731Z,6.30
2019-03-25T10:17:09.142Z,6.30
2019-03-25T10:21:58.785Z,6.20
2019-03-25T10:24:28.075Z,5.90
2019-03-25T10:26:56.617Z,6.00
2019-03-25T10:29:25.039Z,5.90
2019-03-25T10:31:53.428Z,6.10
2019-03-25T10:34:21.874Z,6.40
2019-03-25T10:36:50.926Z,6.50
2019-03-25T10:39:19.327Z,6.50
2019-03-25T10:41:47.706Z,6.60
2019-03-25T10:51:40.626Z,7.50
2019-03-25T10:54:08.992Z,8.40
2019-03-25T10:56:37.378Z,8.90
2019-03-25T10:59:05.818Z,9.10
2019-03-25T11:01:34.275Z,9.60
2019-03-25T11:04:02.666Z,10.00
2019-03-25T11:06:31.187Z,9.80
2019-03-25T11:08:59.654Z,10.00
2019-03-25T11:11:28.047Z,10.20
2019-03-25T11:13:56.526Z,10.50
2019-03-25T11:16:25.145Z,10.60
2019-03-25T11:18:53.553Z,11.00
2019-03-25T11:21:21.987Z,10.30
2019-03-25T11:23:50.373Z,9.50
2019-03-25T11:26:18.756Z,8.70
2019-03-25T11:28:47.157Z,8.60
2019-03-25T11:31:15.538Z,8.50
2019-03-25T11:33:43.911Z,8.40
2019-03-25T11:36:12.305Z,8.10
2019-03-25T11:38:40.639Z,7.80
2019-03-25T11:41:09.001Z,7.50
2019-03-25T11:43:37.481Z,7.50
2019-03-25T12:05:51.350Z,7.10
2019-03-25T12:08:19.738Z,8.10
2019-03-25T12:10:48.132Z,8.70
2019-03-25T12:13:16.564Z,8.90
2019-03-25T12:15:44.949Z,8.60
2019-03-25T12:18:13.275Z,8.10
2019-03-25T12:20:41.720Z,7.90
2019-03-25T12:23:10.129Z,7.90
2019-03-25T12:25:38.485Z,9.20
2019-03-25T22:42:29.190Z,2.40
2019-03-25T22:44:57.566Z,2.40
2019-03-25T22:47:25.954Z,2.40
2019-03-25T22:49:54.310Z,2.30
2019-03-25T22:54:51.778Z,2.30
2019-03-25T22:57:20.140Z,2.20
2019-03-25T22:59:48.522Z,2.20
2019-03-25T23:02:16.905Z,2.20
2019-03-25T23:04:45.271Z,2.20
2019-03-25T23:07:13.686Z,2.10
2019-03-25T23:09:42.075Z,2.10
2019-03-25T23:24:31.501Z,1.90
2019-03-25T23:26:59.966Z,1.90
2019-03-25T23:29:31.204Z,1.90
2019-03-25T23:31:58.985Z,1.90
2019-03-25T23:34:27.361Z,1.90
2019-03-25T23:36:55.767Z,1.90
2019-03-25T23:41:53.730Z,1.80
2019-03-25T23:44:22.182Z,1.80
2019-03-25T23:46:50.582Z,1.80
2019-03-25T23:49:19.044Z,1.80
2019-03-25T23:51:47.388Z,1.90
2019-03-25T23:54:16.082Z,1.90
2019-03-25T23:56:44.514Z,1.80
2019-03-25T23:59:12.862Z,1.80
